Startpagina
METAR-TAF:

METAR-TAF

Vliegvelden :

Aeropuerto de Gran Canaria

Gran Canaria, Spanje

breedte: 27-56N, lengte: 015-23W, hoogte: 23 m

Actueel weer

Dit bericht is 18 minuten geleden gemaakt, om 05:30 UTC
Wind 11 kt uit het noordnoordoosten
Temperatuur 22°C
Vochtigheid 88%
Druk 1017 hPa
Zicht 10 km of meer
Weinig wolken op 1100 ft

METAR: GCLP 190530Z 02011KT 9999 FEW011 22/20 Q1017 NOSIG

Tijdstip: 06:48 (05:48 UTC)

Verwachting

Dit bericht is 3 uur en het 48 minuten geleden gemaakt, om 02:00 UTC
Verwachting geldig van 19 om 03 UTC tot 20 om 03 UTC
Wind 12 kt uit het noorden
Zicht 10 km of meer
Verspreide wolken op 2500 ft

TAF: GCLP 190200Z 1903/2003 36012KT 9999 SCT025 TX29/1914Z TN24/1905Z

Waarnemingen en weersverwachtingen van meer dan 4000 vliegvelden (METAR en TAF).

De beschikbare stations zijn de gele en rode punten op de kaart.

Ga met uw muis naar het station om de naam te zien.

Klik dan om waarnemingen en weersverwachtingen te zien.

kaart wijzigen: klik op de groene knoppen met een zwart kruis om in te zoomen, op de groene knop met een streepje om uit te zoomen of op de groene pijlen voor aangrenzende kaarten.


METAR-TAF: